createdAt,value
2022-11-21T00:03:38.504Z,95970.16
2022-11-21T00:08:42.283Z,95967.28
2022-11-21T00:13:47.248Z,95965.75
2022-11-21T00:18:50.944Z,95965.88
2022-11-21T00:23:54.391Z,95961.56
2022-11-21T00:28:59.395Z,95944.50
2022-11-21T00:34:02.948Z,95936.38
2022-11-21T00:39:06.410Z,95933.16
2022-11-21T00:44:11.442Z,95920.56
2022-11-21T00:49:15.088Z,95918.78
2022-11-21T00:54:18.792Z,95916.78
2022-11-21T00:59:23.952Z,95909.88
2022-11-21T01:04:27.813Z,95906.53
2022-11-21T01:09:31.798Z,95908.81
2022-11-21T01:14:36.761Z,95905.00
2022-11-21T01:19:40.280Z,95895.13
2022-11-21T01:24:43.838Z,95893.81
2022-11-21T01:29:48.732Z,95892.75
2022-11-21T01:34:52.336Z,95891.31
2022-11-21T01:39:55.831Z,95876.09
2022-11-21T01:45:00.747Z,95881.69
2022-11-21T01:50:07.208Z,95884.06
2022-11-21T01:55:14.256Z,95879.44
2022-11-21T02:00:22.976Z,95884.06
2022-11-21T02:05:30.356Z,95888.59
2022-11-21T02:10:39.851Z,95872.78
2022-11-21T02:15:45.198Z,95875.53
2022-11-21T02:20:54.478Z,95879.31
2022-11-21T02:25:59.849Z,95886.09
2022-11-21T02:31:03.387Z,95886.09
2022-11-21T02:36:40.465Z,95895.72
2022-11-21T02:41:53.958Z,95907.25
2022-11-21T02:46:57.962Z,95908.34
2022-11-21T02:52:01.570Z,95912.00
2022-11-21T02:57:06.507Z,95912.47
2022-11-21T03:02:10.087Z,95908.31
2022-11-21T03:07:13.591Z,95912.00
2022-11-21T03:12:18.635Z,95905.69
2022-11-21T03:17:22.363Z,95916.19
2022-11-21T03:22:26.077Z,95922.56
2022-11-21T03:27:31.086Z,95911.16
2022-11-21T03:32:34.656Z,95928.28
2022-11-21T03:37:38.138Z,95933.34
2022-11-21T03:42:43.135Z,95943.13
2022-11-21T03:47:46.770Z,95956.44
2022-11-21T03:52:50.379Z,95957.25
2022-11-21T03:57:55.399Z,95969.56
2022-11-21T04:02:58.917Z,95979.72
2022-11-21T04:08:02.384Z,95986.84
2022-11-21T04:13:07.364Z,95988.78
2022-11-21T04:18:11.290Z,95995.03
2022-11-21T04:23:15.025Z,96010.19
2022-11-21T04:28:20.022Z,96010.44
2022-11-21T04:33:23.575Z,96025.75
2022-11-21T04:38:27.216Z,96037.75
2022-11-21T04:43:32.112Z,96039.59
2022-11-21T04:48:35.656Z,96038.16
2022-11-21T04:53:42.905Z,96046.25
2022-11-21T04:58:48.434Z,96063.50
2022-11-21T05:03:53.663Z,96060.00
2022-11-21T05:08:57.523Z,96073.19
2022-11-21T05:14:02.985Z,96075.38
2022-11-21T05:19:08.153Z,96072.59
2022-11-21T05:24:11.922Z,96080.53
2022-11-21T05:29:18.193Z,96080.91
2022-11-21T05:34:23.288Z,96092.03
2022-11-21T05:39:27.451Z,96089.22
2022-11-21T05:44:40.140Z,96091.78
2022-11-21T05:49:43.888Z,96104.63
2022-11-21T05:54:47.410Z,96112.69
2022-11-21T05:59:52.495Z,96120.97
2022-11-21T06:04:56.083Z,96129.00
2022-11-21T06:09:59.712Z,96138.63
2022-11-21T06:15:05.039Z,96136.94
2022-11-21T06:20:10.122Z,96149.47
2022-11-21T06:25:13.602Z,96141.94
2022-11-21T06:30:22.217Z,96148.56
2022-11-21T06:35:26.060Z,96156.75
2022-11-21T06:40:29.586Z,96157.56
2022-11-21T06:45:34.564Z,96156.63
2022-11-21T06:50:38.669Z,96157.47
2022-11-21T06:55:42.214Z,96176.94
2022-11-21T07:00:48.751Z,96182.03
2022-11-21T07:05:53.725Z,96183.19
2022-11-21T07:11:23.626Z,96191.31
2022-11-21T07:16:26.144Z,96181.91
2022-11-21T07:21:31.128Z,96191.31
2022-11-21T07:26:34.723Z,96204.16
2022-11-21T07:31:39.640Z,96195.16
2022-11-21T07:36:43.270Z,96200.03
2022-11-21T07:41:46.888Z,96203.66
2022-11-21T07:46:55.597Z,96193.84
2022-11-21T07:51:59.691Z,96196.94
2022-11-21T07:57:03.298Z,96193.84
2022-11-21T08:02:08.322Z,96187.31
2022-11-21T08:07:12.429Z,96191.88
2022-11-21T08:12:16.553Z,96195.63
2022-11-21T08:17:21.477Z,96204.91
2022-11-21T08:22:25.066Z,96203.25
2022-11-21T08:27:29.846Z,96191.84
2022-11-21T08:32:34.943Z,96192.63
2022-11-21T08:37:38.568Z,96200.59
2022-11-21T08:42:42.088Z,96203.16
2022-11-21T08:47:47.037Z,96212.38
2022-11-21T08:52:50.662Z,96216.69
2022-11-21T08:57:54.268Z,96221.16
2022-11-21T09:02:59.114Z,96231.38
2022-11-21T09:08:02.723Z,96233.09
2022-11-21T09:13:06.236Z,96237.88
2022-11-21T09:18:12.986Z,96232.41
2022-11-21T09:23:17.809Z,96236.78
2022-11-21T09:28:21.366Z,96235.72
2022-11-21T09:33:26.305Z,96253.31
2022-11-21T09:38:31.300Z,96255.28
2022-11-21T09:43:45.836Z,96248.06
2022-11-21T09:48:56.155Z,96248.97
2022-11-21T09:54:03.850Z,96248.69
2022-11-21T09:59:18.117Z,96243.28
2022-11-21T10:04:23.162Z,96240.03
2022-11-21T10:09:41.908Z,96233.47
2022-11-21T10:14:57.988Z,96234.53
2022-11-21T10:20:19.321Z,96222.44
2022-11-21T10:25:27.521Z,96216.00
2022-11-21T10:30:31.606Z,96219.13
2022-11-21T10:35:42.266Z,96211.78
2022-11-21T10:40:48.367Z,96216.50
2022-11-21T10:45:52.205Z,96208.13
2022-11-21T10:51:12.025Z,96214.56
2022-11-21T10:56:19.752Z,96210.81
2022-11-21T11:01:28.864Z,96208.56
2022-11-21T11:06:34.071Z,96216.38
2022-11-21T11:11:37.616Z,96205.47
2022-11-21T11:16:45.633Z,96198.47
2022-11-21T11:21:50.823Z,96189.53
2022-11-21T11:26:59.874Z,96180.22
2022-11-21T11:32:06.363Z,96173.94
2022-11-21T11:37:21.098Z,96167.25
2022-11-21T11:43:15.269Z,96163.84
2022-11-21T11:48:20.744Z,96156.84
2022-11-21T11:53:30.853Z,96155.81
2022-11-21T11:58:41.697Z,96146.41
2022-11-21T12:03:56.587Z,96147.13
2022-11-21T12:09:09.016Z,96144.06
2022-11-21T12:14:40.661Z,96140.59
2022-11-21T12:19:44.734Z,96122.00
2022-11-21T12:24:49.803Z,96118.53
2022-11-21T12:30:22.943Z,96114.25
2022-11-21T12:35:37.750Z,96105.16
2022-11-21T12:40:55.406Z,96094.06
2022-11-21T12:46:07.992Z,96088.22
2022-11-21T12:51:52.391Z,96088.22
2022-11-21T12:57:06.749Z,96095.31
2022-11-21T13:02:22.332Z,96089.25
2022-11-21T13:07:29.746Z,96081.03
2022-11-21T13:12:43.235Z,96077.81
2022-11-21T13:17:53.109Z,96067.44
2022-11-21T13:23:01.100Z,96062.66
2022-11-21T13:28:46.256Z,96062.44
2022-11-21T13:33:52.539Z,96063.19
2022-11-21T13:39:27.195Z,96053.19
2022-11-21T13:44:38.686Z,96053.34
2022-11-21T13:49:53.796Z,96051.47
2022-11-21T13:55:18.757Z,96054.00
2022-11-21T14:00:38.131Z,96050.84
2022-11-21T14:06:14.956Z,96056.50
2022-11-21T14:11:23.791Z,96049.53
2022-11-21T14:16:36.206Z,96045.03
2022-11-21T14:21:42.236Z,96052.31
2022-11-21T14:26:49.033Z,96046.84
2022-11-21T14:31:52.643Z,96044.41
2022-11-21T14:37:01.091Z,96043.25
2022-11-21T14:42:06.882Z,96037.47
2022-11-21T14:47:23.126Z,96043.09
2022-11-21T14:52:32.231Z,96037.44
2022-11-21T14:57:42.159Z,96025.94
2022-11-21T15:02:47.148Z,96019.78
2022-11-21T15:08:01.195Z,96023.34
2022-11-21T15:13:20.261Z,96020.16
2022-11-21T15:18:27.963Z,96017.44
2022-11-21T15:23:35.498Z,96000.94
2022-11-21T15:28:39.297Z,95984.78
2022-11-21T15:34:19.595Z,95973.28
2022-11-21T15:39:23.962Z,95955.69
2022-11-21T15:44:28.274Z,95952.34
2022-11-21T15:49:33.447Z,95961.94
2022-11-21T15:54:38.701Z,95968.53
2022-11-21T15:59:42.244Z,95972.19
2022-11-21T16:04:45.751Z,95962.88
2022-11-21T16:09:52.259Z,95968.31
2022-11-21T16:14:55.704Z,95965.16
2022-11-21T16:19:59.291Z,95963.38
2022-11-21T16:25:04.367Z,95969.00
2022-11-21T16:30:09.048Z,95962.94
2022-11-21T16:35:12.542Z,95945.97
2022-11-21T16:40:18.164Z,95943.66
2022-11-21T16:45:21.712Z,95939.56
2022-11-21T16:50:25.323Z,95928.69
2022-11-21T16:55:30.818Z,95923.22
2022-11-21T17:00:34.716Z,95907.13
2022-11-21T17:05:38.584Z,95896.38
2022-11-21T17:10:43.521Z,95875.75
2022-11-21T17:15:47.356Z,95869.41
2022-11-21T17:20:50.929Z,95880.31
2022-11-21T17:25:56.022Z,95854.84
2022-11-21T17:31:00.188Z,95834.53
2022-11-21T17:36:04.767Z,95813.88
2022-11-21T17:41:12.198Z,95822.78
2022-11-21T17:46:18.360Z,95825.00
2022-11-21T17:51:24.054Z,95815.75
2022-11-21T17:56:31.410Z,95811.94
2022-11-21T18:01:36.002Z,95801.88
2022-11-21T18:06:41.053Z,95795.63
2022-11-21T18:11:46.561Z,95809.38
2022-11-21T18:16:53.359Z,95799.91
2022-11-21T18:21:57.646Z,95801.56
2022-11-21T18:27:03.264Z,95796.97
2022-11-21T18:32:07.408Z,95787.50
2022-11-21T18:37:11.081Z,95794.28
2022-11-21T18:42:16.350Z,95777.84
2022-11-21T18:47:20.988Z,95779.41
2022-11-21T18:52:25.038Z,95758.66
2022-11-21T18:57:30.978Z,95745.44
2022-11-21T19:02:34.608Z,95725.44
2022-11-21T19:07:38.588Z,95729.72
2022-11-21T19:12:44.079Z,95719.00
2022-11-21T19:17:48.209Z,95706.38
2022-11-21T19:22:52.354Z,95711.19
2022-11-21T19:27:58.210Z,95719.19
2022-11-21T19:33:02.108Z,95718.91
2022-11-21T19:38:06.913Z,95707.22
2022-11-21T19:43:12.660Z,95692.53
2022-11-21T19:48:16.195Z,95691.50
2022-11-21T19:53:19.747Z,95701.81
2022-11-21T19:58:26.855Z,95721.50
2022-11-21T20:03:31.707Z,95725.56
2022-11-21T20:08:35.991Z,95719.50
2022-11-21T20:13:42.168Z,95710.97
2022-11-21T20:18:45.741Z,95712.63
2022-11-21T20:23:50.648Z,95708.56
2022-11-21T20:28:57.197Z,95694.84
2022-11-21T20:34:02.247Z,95692.06
2022-11-21T20:39:08.005Z,95688.50
2022-11-21T20:49:38.940Z,95679.94
2022-11-21T20:54:42.462Z,95681.13
2022-11-21T20:59:47.512Z,95667.56
2022-11-21T21:04:51.074Z,95664.25
2022-11-21T21:09:55.839Z,95657.25
2022-11-21T21:15:00.876Z,95647.84
2022-11-21T21:20:05.752Z,95640.47
2022-11-21T21:25:10.138Z,95632.00
2022-11-21T21:30:15.676Z,95630.09
2022-11-21T21:35:20.401Z,95635.41
2022-11-21T21:40:24.028Z,95628.19
2022-11-21T21:45:29.055Z,95632.94
2022-11-21T21:50:32.651Z,95613.50
2022-11-21T21:55:36.748Z,95617.78
2022-11-21T22:00:41.981Z,95606.03
2022-11-21T22:05:45.763Z,95592.75
2022-11-21T22:10:49.450Z,95582.19
2022-11-21T22:15:57.442Z,95576.50
2022-11-21T22:21:01.629Z,95569.59
2022-11-21T22:26:05.199Z,95560.72
2022-11-21T22:31:11.397Z,95562.16
2022-11-21T22:36:16.490Z,95560.25
2022-11-21T22:41:21.604Z,95547.19
2022-11-21T22:46:27.557Z,95550.00
2022-11-21T22:51:31.153Z,95546.22
2022-11-21T22:56:34.727Z,95533.91
2022-11-21T23:01:39.731Z,95543.03
2022-11-21T23:06:43.573Z,95546.63
2022-11-21T23:11:47.142Z,95536.00
2022-11-21T23:16:52.091Z,95532.03
2022-11-21T23:21:55.704Z,95521.91
2022-11-21T23:26:59.382Z,95514.69
2022-11-21T23:32:04.331Z,95517.13
2022-11-21T23:37:07.889Z,95511.94
2022-11-21T23:42:11.766Z,95511.03
2022-11-21T23:47:17.169Z,95526.06
2022-11-21T23:52:21.671Z,95520.66
2022-11-21T23:57:25.588Z,95514.19
